Date,TemperatureHighF,TemperatureAvgF,TemperatureLowF,DewpointHighF,DewpointAvgF,DewpointLowF,HumidityHigh,HumidityAvg,HumidityLow,PressureMaxIn,PressureMinIn,WindSpeedMaxMPH,WindSpeedAvgMPH,GustSpeedMaxMPH,PrecipitationSumIn
2013-1-1,38.5,35.2,24.6,27.4,20.1,2.6,65,54,37,29.86,29.67,11,3,19,0.01
2013-1-2,32.2,26.4,20.1,12.6,8.7,4.7,54,47,40,30.01,29.83,8,2,18,0.00
2013-1-3,33.4,26.5,16.7,14.8,10.3,2.3,57,50,39,30.03,29.89,7,2,14,0.00
2013-1-4,39.7,33.5,27.9,22.6,18.0,12.7,62,53,44,29.90,29.75,9,2,15,0.00
2013-1-5,43.5,35.2,28.6,22.3,18.7,14.6,66,51,42,30.12,29.83,13,2,20,0.00
2013-1-9,46.0,44.7,43.2,33.4,32.3,31.0,62,61,61,30.05,30.00,4,2,8,0.00
2013-1-10,43.2,38.0,35.8,31.0,23.0,19.9,63,54,51,30.38,30.05,2,1,4,0.00
2013-1-11,43.0,40.6,39.0,40.5,37.6,35.8,91,89,88,30.05,29.97,4,1,6,0.24
2013-1-12,44.2,43.1,42.4,40.9,40.3,40.0,91,90,88,30.03,29.97,2,0,4,0.01
2013-1-13,46.9,44.2,41.5,44.5,41.8,39.1,92,91,90,30.01,29.86,3,0,6,0.00
2013-1-14,56.7,48.7,36.3,52.5,41.2,28.4,92,77,54,30.14,29.75,10,2,18,0.10
2013-1-15,38.3,36.0,33.8,29.0,25.1,21.0,81,65,53,30.19,30.06,7,2,11,0.11
2013-1-16,34.5,32.9,31.5,30.0,28.2,23.6,85,83,64,30.08,29.65,6,0,9,0.01
2013-1-17,44.8,37.7,32.9,30.5,26.5,18.9,84,65,49,29.93,29.74,13,2,17,0.27
2013-1-18,32.7,26.8,21.9,18.8,4.4,-5.8,56,38,22,30.32,29.86,11,2,17,0.00
2013-1-19,50.2,40.6,27.7,26.7,20.1,6.9,56,44,32,30.23,29.77,11,3,17,0.00
2013-1-20,54.5,42.8,28.6,29.1,19.6,2.0,64,41,21,29.87,29.51,11,3,21,0.00
2013-1-21,31.3,27.7,21.7,13.9,7.9,1.4,55,43,33,29.93,29.66,7,1,11,0.00
2013-1-22,25.5,19.3,11.7,12.0,-6.3,-15.8,56,31,21,30.03,29.65,12,4,20,0.00
2013-1-23,20.7,13.5,8.4,-6.0,-12.5,-17.4,45,28,21,30.07,29.98,11,2,16,0.00
2013-1-24,24.6,15.1,8.4,-4.7,-8.2,-12.7,51,34,22,30.21,29.96,14,3,27,0.00
2013-1-25,24.8,17.4,11.3,10.6,-1.2,-9.1,68,44,25,30.24,29.89,8,1,16,0.00
2013-1-26,28.2,19.4,12.0,7.6,2.0,-4.0,66,48,25,30.19,29.86,10,2,18,0.02
2013-1-27,34.9,24.7,14.5,7.9,2.7,-1.4,56,39,23,30.35,30.18,8,1,15,0.00
2013-1-28,34.0,30.0,23.2,29.1,20.0,5.3,83,67,45,30.32,29.84,5,0,8,0.01
2013-1-29,43.2,37.3,33.8,38.7,32.1,28.9,87,81,72,29.99,29.82,8,1,11,0.11
2013-1-30,53.8,46.5,36.7,50.0,42.6,32.0,89,86,83,29.94,29.21,8,2,14,0.07
2013-1-31,57.2,44.8,28.4,53.2,27.1,3.7,88,53,25,29.61,28.88,14,5,30,0.66